createdAt,value
2022-09-04T00:01:24.302Z,62.75
2022-09-04T00:04:11.997Z,62.54
2022-09-04T00:06:47.467Z,63.40
2022-09-04T00:09:49.535Z,63.23
2022-09-04T00:12:26.732Z,63.73
2022-09-04T00:15:15.371Z,63.12
2022-09-04T00:18:02.705Z,63.59
2022-09-04T00:20:47.077Z,63.92
2022-09-04T00:26:13.904Z,63.65
2022-09-04T00:28:49.624Z,63.31
2022-09-04T00:31:38.655Z,63.90
2022-09-04T00:34:24.933Z,64.41
2022-09-04T00:36:58.330Z,64.45
2022-09-04T00:39:31.263Z,64.57
2022-09-04T00:42:15.416Z,64.38
2022-09-04T00:45:04.721Z,65.00
2022-09-04T00:47:40.607Z,65.46
2022-09-04T00:50:21.297Z,65.42
2022-09-04T00:52:59.885Z,65.36
2022-09-04T00:55:44.321Z,66.22
2022-09-04T00:58:47.843Z,65.06
2022-09-04T01:01:26.491Z,65.06
2022-09-04T01:04:20.623Z,64.72
2022-09-04T01:07:12.765Z,65.63
2022-09-04T01:10:04.906Z,64.33
2022-09-04T01:12:40.714Z,63.46
2022-09-04T01:15:18.417Z,64.50
2022-09-04T01:18:06.536Z,63.75
2022-09-04T01:20:48.344Z,63.75
2022-09-04T01:23:26.961Z,63.69
2022-09-04T01:26:20.407Z,63.55
2022-09-04T01:28:53.883Z,63.95
2022-09-04T01:31:41.715Z,63.95
2022-09-04T01:34:20.223Z,63.70
2022-09-04T01:37:01.694Z,64.13
2022-09-04T01:39:34.744Z,64.33
2022-09-04T01:42:11.822Z,63.32
2022-09-04T01:44:41.589Z,63.64
2022-09-04T01:47:32.294Z,63.64
2022-09-04T01:50:10.654Z,64.55
2022-09-04T01:52:52.114Z,64.39
2022-09-04T01:55:36.883Z,63.97
2022-09-04T01:58:13.594Z,63.34
2022-09-04T02:00:49.407Z,64.21
2022-09-04T02:03:27.575Z,64.44
2022-09-04T02:06:24.045Z,64.44
2022-09-04T02:09:11.567Z,64.47
2022-09-04T02:11:45.161Z,64.28
2022-09-04T02:14:34.224Z,65.19
2022-09-04T02:17:12.331Z,64.69
2022-09-04T02:20:00.184Z,65.05
2022-09-04T02:22:40.419Z,65.32
2022-09-04T02:25:32.183Z,65.15
2022-09-04T02:28:23.282Z,66.32
2022-09-04T02:31:04.942Z,66.67
2022-09-04T02:33:55.633Z,65.91
2022-09-04T02:36:46.074Z,66.13
2022-09-04T02:39:32.350Z,66.61
2022-09-04T02:42:24.090Z,68.08
2022-09-04T02:45:19.209Z,68.08
2022-09-04T02:47:52.026Z,66.94
2022-09-04T02:50:55.951Z,67.33
2022-09-04T02:53:31.460Z,68.57
2022-09-04T02:56:15.860Z,69.48
2022-09-04T02:58:57.654Z,69.44
2022-09-04T03:01:39.424Z,68.80
2022-09-04T03:04:20.863Z,70.27
2022-09-04T03:07:05.643Z,70.20
2022-09-04T03:09:53.016Z,70.22
2022-09-04T03:12:31.387Z,70.95
2022-09-04T03:15:04.194Z,71.01
2022-09-04T03:17:48.567Z,71.75
2022-09-04T03:20:23.708Z,71.79
2022-09-04T03:23:08.075Z,71.89
2022-09-04T03:25:46.681Z,72.62
2022-09-04T03:28:31.065Z,72.18
2022-09-04T03:31:02.980Z,70.41
2022-09-04T03:33:35.843Z,71.69
2022-09-04T03:36:11.200Z,72.60
2022-09-04T03:39:06.077Z,72.45
2022-09-04T03:42:02.512Z,73.53
2022-09-04T03:44:52.531Z,73.36
2022-09-04T03:47:28.449Z,73.01
2022-09-04T03:50:06.566Z,72.95
2022-09-04T03:52:39.695Z,73.61
2022-09-04T03:55:34.257Z,73.61
2022-09-04T03:58:15.673Z,74.00
2022-09-04T04:01:09.879Z,73.28
2022-09-04T04:03:54.553Z,73.24
2022-09-04T04:06:38.752Z,73.32
2022-09-04T04:09:28.781Z,73.17
2022-09-04T04:12:08.338Z,72.05
2022-09-04T04:14:59.213Z,72.73
2022-09-04T04:17:37.612Z,72.50
2022-09-04T04:20:15.800Z,72.60
2022-09-04T04:22:53.993Z,73.22
2022-09-04T04:25:49.891Z,73.48
2022-09-04T04:28:24.069Z,73.38
2022-09-04T04:30:56.400Z,73.48
2022-09-04T04:33:51.321Z,73.74
2022-09-04T04:36:32.809Z,73.78
2022-09-04T04:39:30.295Z,72.91
2022-09-04T04:42:22.754Z,72.18
2022-09-04T04:45:35.628Z,73.31
2022-09-04T04:48:16.144Z,73.31
2022-09-04T04:50:49.553Z,71.90
2022-09-04T04:53:34.115Z,73.16
2022-09-04T04:59:04.416Z,73.87
2022-09-04T05:02:04.313Z,73.84
2022-09-04T05:04:54.955Z,73.46
2022-09-04T05:07:43.989Z,73.47
2022-09-04T05:10:23.600Z,73.23
2022-09-04T05:12:58.856Z,72.14
2022-09-04T05:15:52.990Z,72.14
2022-09-04T05:18:39.122Z,72.60
2022-09-04T05:21:26.519Z,72.66
2022-09-04T05:23:59.345Z,72.98
2022-09-04T05:26:46.312Z,72.94
2022-09-04T05:29:16.574Z,73.00
2022-09-04T05:32:03.950Z,72.08
2022-09-04T05:34:39.261Z,72.67
2022-09-04T05:37:14.821Z,71.52
2022-09-04T05:42:57.017Z,71.34
2022-09-04T05:45:46.220Z,72.11
2022-09-04T05:48:45.757Z,71.49
2022-09-04T05:51:22.499Z,72.14
2022-09-04T05:54:04.243Z,71.73
2022-09-04T05:56:39.869Z,71.63
2022-09-04T05:59:43.937Z,71.62
2022-09-04T06:02:48.232Z,72.26
2022-09-04T06:05:21.308Z,72.66
2022-09-04T06:08:10.723Z,72.66
2022-09-04T06:10:46.304Z,72.23
2022-09-04T06:13:21.353Z,72.54
2022-09-04T06:16:00.083Z,72.26
2022-09-04T06:18:32.929Z,72.65
2022-09-04T06:21:11.425Z,71.32
2022-09-04T06:24:16.945Z,70.51
2022-09-04T06:26:55.993Z,71.65
2022-09-04T06:29:47.599Z,70.61
2022-09-04T06:32:35.187Z,70.24
2022-09-04T06:35:24.383Z,70.24
2022-09-04T06:38:26.514Z,69.30
2022-09-04T06:41:16.960Z,68.90
2022-09-04T06:43:55.881Z,68.16
2022-09-04T06:46:34.622Z,68.16
2022-09-04T06:49:13.466Z,68.67
2022-09-04T06:52:08.564Z,68.01
2022-09-04T06:54:48.430Z,66.68
2022-09-04T06:57:45.363Z,66.68
2022-09-04T07:00:19.862Z,67.40
2022-09-04T07:03:07.245Z,66.64
2022-09-04T07:05:48.502Z,66.64
2022-09-04T07:08:26.950Z,65.54
2022-09-04T07:11:17.748Z,65.15
2022-09-04T07:14:03.214Z,64.45
2022-09-04T07:16:38.973Z,64.28
2022-09-04T07:19:23.556Z,63.22
2022-09-04T07:22:05.115Z,63.52
2022-09-04T07:24:38.615Z,63.27
2022-09-04T07:27:23.281Z,63.71
2022-09-04T07:29:58.536Z,62.67
2022-09-04T07:32:43.218Z,62.03
2022-09-04T07:35:36.264Z,61.37
2022-09-04T07:38:17.282Z,60.67
2022-09-04T07:40:53.203Z,60.21
2022-09-04T07:43:40.649Z,59.91
2022-09-04T07:46:14.648Z,59.72
2022-09-04T07:48:59.281Z,58.90
2022-09-04T07:51:34.771Z,58.86
2022-09-04T07:57:27.293Z,57.34
2022-09-04T08:00:10.209Z,57.08
2022-09-04T08:03:11.870Z,56.64
2022-09-04T08:06:06.556Z,56.23
2022-09-04T08:08:48.805Z,55.58
2022-09-04T08:11:45.411Z,55.23
2022-09-04T08:14:32.891Z,55.24
2022-09-04T08:17:33.171Z,54.88
2022-09-04T08:20:06.001Z,54.59
2022-09-04T08:22:38.813Z,53.53
2022-09-04T08:25:32.232Z,51.79
2022-09-04T08:28:15.423Z,51.79
2022-09-04T08:30:50.903Z,51.63
2022-09-04T08:33:29.427Z,51.58
2022-09-04T08:36:14.083Z,51.59
2022-09-04T08:38:54.229Z,51.32
2022-09-04T08:41:48.865Z,51.42
2022-09-04T08:44:51.949Z,50.83
2022-09-04T08:47:55.946Z,50.06
2022-09-04T08:50:34.306Z,48.62
2022-09-04T08:53:19.201Z,48.62
2022-09-04T08:56:08.323Z,48.72
2022-09-04T08:59:09.683Z,48.97
2022-09-04T09:01:57.292Z,49.07
2022-09-04T09:04:56.755Z,48.28
2022-09-04T09:07:41.495Z,48.34
2022-09-04T09:10:36.214Z,47.70
2022-09-04T09:13:11.736Z,47.18
2022-09-04T09:15:46.966Z,47.33
2022-09-04T09:18:25.646Z,47.57
2022-09-04T09:21:10.215Z,47.22
2022-09-04T09:23:54.595Z,47.12
2022-09-04T09:26:31.781Z,45.69
2022-09-04T09:29:20.014Z,45.43
2022-09-04T09:32:07.777Z,45.84
2022-09-04T09:34:59.647Z,44.99
2022-09-04T09:37:47.430Z,45.03
2022-09-04T09:40:34.172Z,45.64
2022-09-04T09:43:09.528Z,44.79
2022-09-04T09:45:58.523Z,43.32
2022-09-04T09:48:58.706Z,41.10
2022-09-04T09:51:46.499Z,42.46
2022-09-04T09:54:19.270Z,41.19
2022-09-04T09:57:11.007Z,41.19
2022-09-04T10:00:07.407Z,41.77
2022-09-04T10:03:09.630Z,41.59
2022-09-04T10:06:01.260Z,41.06
2022-09-04T10:08:50.510Z,41.08
2022-09-04T10:11:48.703Z,40.61
2022-09-04T10:14:53.619Z,40.19
2022-09-04T10:17:45.639Z,40.17
2022-09-04T10:20:29.962Z,39.84
2022-09-04T10:23:27.014Z,39.62
2022-09-04T10:26:11.371Z,39.47
2022-09-04T10:29:10.003Z,38.34
2022-09-04T10:31:42.827Z,39.24
2022-09-04T10:34:52.140Z,39.54
2022-09-04T10:37:49.051Z,39.35
2022-09-04T10:40:44.496Z,39.61
2022-09-04T10:43:32.415Z,39.44
2022-09-04T10:46:23.679Z,38.54
2022-09-04T10:49:17.092Z,39.36
2022-09-04T10:51:56.246Z,39.32
2022-09-04T10:54:45.306Z,39.00
2022-09-04T10:57:21.424Z,37.80
2022-09-04T11:00:07.596Z,37.19
2022-09-04T11:03:00.151Z,37.26
2022-09-04T11:05:51.917Z,37.48
2022-09-04T11:08:59.171Z,37.75
2022-09-04T11:11:35.177Z,38.27
2022-09-04T11:14:18.623Z,39.07
2022-09-04T11:16:57.138Z,39.52
2022-09-04T11:19:43.521Z,38.73
2022-09-04T11:22:19.843Z,39.27
2022-09-04T11:25:11.874Z,39.39
2022-09-04T11:28:07.185Z,38.90
2022-09-04T11:31:04.655Z,38.63
2022-09-04T11:33:49.773Z,38.63
2022-09-04T11:36:41.601Z,37.45
2022-09-04T11:39:38.834Z,36.00
2022-09-04T11:42:45.271Z,35.58
2022-09-04T11:45:48.102Z,35.43
2022-09-04T11:48:43.271Z,35.61
2022-09-04T11:51:18.976Z,35.18
2022-09-04T11:54:08.049Z,34.85
2022-09-04T11:57:10.529Z,35.21
2022-09-04T11:59:43.909Z,34.90
2022-09-04T12:02:47.730Z,35.15
2022-09-04T12:05:47.479Z,34.18
2022-09-04T12:08:40.691Z,34.50
2022-09-04T12:11:15.137Z,35.01
2022-09-04T12:13:51.904Z,35.04
2022-09-04T12:16:33.366Z,34.82
2022-09-04T12:19:34.180Z,34.82
2022-09-04T12:22:22.601Z,35.07
2022-09-04T12:25:12.973Z,35.54
2022-09-04T12:27:57.645Z,35.89
2022-09-04T12:30:47.990Z,35.82
2022-09-04T12:33:39.887Z,36.26
2022-09-04T12:36:22.334Z,36.26
2022-09-04T12:39:11.828Z,34.87
2022-09-04T12:41:50.310Z,34.60
2022-09-04T12:44:34.674Z,34.60
2022-09-04T12:47:07.491Z,33.56
2022-09-04T12:49:42.985Z,32.80
2022-09-04T12:52:34.379Z,31.08
2022-09-04T12:55:22.912Z,30.73
2022-09-04T12:58:11.557Z,30.15
2022-09-04T13:00:48.783Z,30.62
2022-09-04T13:03:25.313Z,30.24
2022-09-04T13:06:15.315Z,29.80
2022-09-04T13:09:10.283Z,29.88
2022-09-04T13:12:01.968Z,30.91
2022-09-04T13:14:34.507Z,30.94
2022-09-04T13:17:14.568Z,30.24
2022-09-04T13:20:00.385Z,30.33
2022-09-04T13:22:46.301Z,29.21
2022-09-04T13:25:30.491Z,28.48
2022-09-04T13:28:27.317Z,28.35
2022-09-04T13:31:08.892Z,29.07
2022-09-04T13:34:00.500Z,28.67
2022-09-04T13:36:52.658Z,28.44
2022-09-04T13:39:40.046Z,28.48
2022-09-04T13:42:23.187Z,28.57
2022-09-04T13:45:10.658Z,27.72
2022-09-04T13:47:58.408Z,28.30
2022-09-04T13:50:37.010Z,28.58
2022-09-04T13:53:27.584Z,28.58
2022-09-04T13:56:00.663Z,29.07
2022-09-04T13:58:39.629Z,29.76
2022-09-04T14:01:19.806Z,30.04
2022-09-04T14:03:52.710Z,29.78
2022-09-04T14:06:25.550Z,30.19
2022-09-04T14:09:04.794Z,30.39
2022-09-04T14:11:50.660Z,30.36
2022-09-04T14:14:48.487Z,29.76
2022-09-04T14:17:25.519Z,28.80
2022-09-04T14:20:12.023Z,28.24
2022-09-04T14:22:56.999Z,28.54
2022-09-04T14:25:32.393Z,27.89
2022-09-04T14:28:16.843Z,28.35
2022-09-04T14:31:01.462Z,28.38
2022-09-04T14:33:53.456Z,28.14
2022-09-04T14:36:26.446Z,27.95
2022-09-04T14:39:14.649Z,27.68
2022-09-04T14:42:12.208Z,27.96
2022-09-04T14:45:20.528Z,27.71
2022-09-04T14:50:36.598Z,27.83
2022-09-04T14:53:09.365Z,27.97
2022-09-04T14:55:45.460Z,27.68
2022-09-04T14:58:31.252Z,28.46
2022-09-04T15:01:07.026Z,28.25
2022-09-04T15:03:42.615Z,27.75
2022-09-04T15:06:23.865Z,27.60
2022-09-04T15:08:53.705Z,27.71
2022-09-04T15:11:32.461Z,27.49
2022-09-04T15:14:12.280Z,27.32
2022-09-04T15:16:46.668Z,27.18
2022-09-04T15:19:35.731Z,27.18
2022-09-04T15:22:08.545Z,27.08
2022-09-04T15:24:41.342Z,27.23
2022-09-04T15:27:27.269Z,27.15
2022-09-04T15:30:08.555Z,27.24
2022-09-04T15:32:41.806Z,26.92
2022-09-04T15:35:32.736Z,26.73
2022-09-04T15:38:21.984Z,27.08
2022-09-04T15:41:15.722Z,26.90
2022-09-04T15:43:29.631Z,26.70
2022-09-04T15:46:02.206Z,26.72
2022-09-04T15:48:48.644Z,26.08
2022-09-04T15:51:39.000Z,25.66
2022-09-04T15:54:15.326Z,25.79
2022-09-04T15:56:53.733Z,25.59
2022-09-04T15:59:32.012Z,25.28
2022-09-04T16:02:31.547Z,24.97
2022-09-04T16:05:14.847Z,24.93
2022-09-04T16:07:47.642Z,24.89
2022-09-04T16:10:27.790Z,24.80
2022-09-04T16:13:06.361Z,25.12
2022-09-04T16:15:41.949Z,24.37
2022-09-04T16:18:25.051Z,24.05
2022-09-04T16:21:00.966Z,24.12
2022-09-04T16:23:38.146Z,24.18
2022-09-04T16:26:13.940Z,24.01
2022-09-04T16:28:50.317Z,23.80
2022-09-04T16:31:31.987Z,24.57
2022-09-04T16:34:04.857Z,25.22
2022-09-04T16:36:50.875Z,25.06
2022-09-04T16:39:32.769Z,24.65
2022-09-04T16:42:14.573Z,24.53
2022-09-04T16:45:05.224Z,24.81
2022-09-04T16:48:10.682Z,25.09
2022-09-04T16:51:09.916Z,25.58
2022-09-04T16:53:50.520Z,25.77
2022-09-04T16:56:36.499Z,25.77
2022-09-04T16:59:27.411Z,26.05
2022-09-04T17:02:06.111Z,26.37
2022-09-04T17:04:40.208Z,26.37
2022-09-04T17:07:16.351Z,27.22
2022-09-04T17:10:01.617Z,27.36
2022-09-04T17:12:43.357Z,27.36
2022-09-04T17:15:53.214Z,27.33
2022-09-04T17:18:23.928Z,26.87
2022-09-04T17:23:43.046Z,26.68
2022-09-04T17:29:03.639Z,26.00
2022-09-04T17:29:16.891Z,25.95
2022-09-04T17:31:58.661Z,26.26
2022-09-04T17:40:38.903Z,26.34
2022-09-04T17:40:39.970Z,25.78
2022-09-04T17:40:55.962Z,26.45
2022-09-04T17:43:19.153Z,27.00
2022-09-04T17:45:35.203Z,27.30
2022-09-04T17:48:22.229Z,28.25
2022-09-04T17:50:52.449Z,29.01
2022-09-04T17:53:33.795Z,29.09
2022-09-04T17:55:59.393Z,30.25
2022-09-04T17:58:39.440Z,29.74
2022-09-04T18:01:15.960Z,29.96
2022-09-04T18:04:21.262Z,30.15
2022-09-04T18:06:23.762Z,30.30
2022-09-04T18:08:57.133Z,30.57
2022-09-04T18:11:32.402Z,30.93
2022-09-04T18:14:18.454Z,31.37
2022-09-04T18:17:11.619Z,31.71
2022-09-04T18:19:47.190Z,32.26
2022-09-04T18:22:33.520Z,32.65
2022-09-04T18:25:17.273Z,32.93
2022-09-04T18:27:48.927Z,33.42
2022-09-04T18:36:15.596Z,33.93
2022-09-04T18:37:07.618Z,34.21
2022-09-04T18:37:17.023Z,34.52
2022-09-04T18:38:38.242Z,35.50
2022-09-04T18:50:29.963Z,36.60
2022-09-04T18:50:40.368Z,36.60
2022-09-04T18:50:42.919Z,36.93
2022-09-04T18:51:57.945Z,36.93
2022-09-04T18:54:37.854Z,36.92
2022-09-04T18:57:26.729Z,37.80
2022-09-04T19:00:09.407Z,37.22
2022-09-04T19:03:07.517Z,37.65
2022-09-04T19:05:44.952Z,38.18
2022-09-04T19:11:20.388Z,38.88
2022-09-04T19:13:48.858Z,39.17
2022-09-04T19:16:27.427Z,39.17
2022-09-04T19:19:03.923Z,38.99
2022-09-04T19:21:58.373Z,39.43
2022-09-04T19:24:41.489Z,39.50
2022-09-04T19:27:21.982Z,40.31
2022-09-04T19:29:56.990Z,40.35
2022-09-04T19:32:31.560Z,40.54
2022-09-04T19:35:07.016Z,40.57
2022-09-04T19:39:06.812Z,40.74
2022-09-04T19:45:55.730Z,40.11
2022-09-04T19:46:05.541Z,41.01
2022-09-04T19:46:19.915Z,41.05
2022-09-04T19:49:06.414Z,41.62
2022-09-04T19:53:31.647Z,41.66
2022-09-04T19:54:16.658Z,42.04
2022-09-04T19:57:31.329Z,42.72
2022-09-04T19:59:29.214Z,42.72
2022-09-04T20:02:03.636Z,43.30
2022-09-04T20:04:41.793Z,43.29
2022-09-04T20:07:14.828Z,43.20
2022-09-04T20:09:50.466Z,42.89
2022-09-04T20:12:23.176Z,42.79
2022-09-04T20:14:58.725Z,43.10
2022-09-04T20:17:55.568Z,44.03
2022-09-04T20:20:33.943Z,44.13
2022-09-04T20:23:34.904Z,44.13
2022-09-04T20:25:50.144Z,44.53
2022-09-04T20:28:37.576Z,44.43
2022-09-04T20:31:30.316Z,44.39
2022-09-04T20:33:48.190Z,45.15
2022-09-04T20:36:22.659Z,45.08
2022-09-04T20:38:58.150Z,45.25
2022-09-04T20:41:47.248Z,45.50
2022-09-04T20:44:34.264Z,45.52
2022-09-04T20:52:41.636Z,47.00
2022-09-04T20:52:54.895Z,47.00
2022-09-04T20:53:07.001Z,45.68
2022-09-04T20:55:31.059Z,45.68
2022-09-04T21:03:11.709Z,46.01
2022-09-04T21:03:23.994Z,46.37
2022-09-04T21:03:28.025Z,46.46
2022-09-04T21:05:50.660Z,46.84
2022-09-04T21:08:33.998Z,46.84
2022-09-04T21:11:39.403Z,47.31
2022-09-04T21:13:53.550Z,47.31
2022-09-04T21:16:32.107Z,47.79
2022-09-04T21:19:27.638Z,47.62
2022-09-04T21:22:10.001Z,47.92
2022-09-04T21:25:09.765Z,48.12
2022-09-04T21:27:57.115Z,49.14
2022-09-04T21:30:56.708Z,48.96
2022-09-04T21:33:47.206Z,48.55
2022-09-04T21:36:26.450Z,48.27
2022-09-04T21:39:09.344Z,49.07
2022-09-04T21:41:51.012Z,49.26
2022-09-04T21:44:34.413Z,49.12
2022-09-04T21:47:08.915Z,49.54
2022-09-04T21:49:44.655Z,49.25
2022-09-04T21:52:55.821Z,48.98
2022-09-04T22:01:22.266Z,49.27
2022-09-04T22:02:35.994Z,50.10
2022-09-04T22:02:43.812Z,51.06
2022-09-04T22:03:53.716Z,51.06
2022-09-04T22:07:56.330Z,51.46
2022-09-04T22:13:34.732Z,50.93
2022-09-04T22:13:40.553Z,50.93
2022-09-04T22:15:08.452Z,51.30
2022-09-04T22:17:58.777Z,51.07
2022-09-04T22:20:52.345Z,51.24
2022-09-04T22:23:44.719Z,51.29
2022-09-04T22:26:35.202Z,52.18
2022-09-04T22:29:32.166Z,51.38
2022-09-04T22:32:20.471Z,51.52
2022-09-04T22:35:01.754Z,52.81
2022-09-04T22:37:49.304Z,51.75
2022-09-04T22:40:43.099Z,51.93
2022-09-04T22:43:13.338Z,53.21
2022-09-04T22:45:46.142Z,53.88
2022-09-04T22:48:31.004Z,53.46
2022-09-04T22:51:27.570Z,52.68
2022-09-04T22:54:28.698Z,52.55
2022-09-04T22:57:10.289Z,52.17
2022-09-04T22:59:54.497Z,53.07
2022-09-04T23:03:08.286Z,53.27
2022-09-04T23:06:11.341Z,53.34
2022-09-04T23:13:49.354Z,53.50
2022-09-04T23:14:01.020Z,53.32
2022-09-04T23:14:31.315Z,53.15
2022-09-04T23:17:09.802Z,53.32
2022-09-04T23:23:36.405Z,52.75
2022-09-04T23:26:35.203Z,52.75
2022-09-04T23:26:44.995Z,53.43
2022-09-04T23:28:28.090Z,53.33
2022-09-04T23:31:00.101Z,53.04
2022-09-04T23:33:52.528Z,53.63
2022-09-04T23:36:55.088Z,54.00
2022-09-04T23:39:36.859Z,53.44
2022-09-04T23:42:29.408Z,53.65
2022-09-04T23:45:33.296Z,53.57
2022-09-04T23:48:24.394Z,53.57
2022-09-04T23:51:02.939Z,53.91
2022-09-04T23:53:41.909Z,54.50
2022-09-04T23:56:21.975Z,53.90
2022-09-04T23:59:38.251Z,54.31
